createdAt,value
2018-07-09T00:02:18.522Z,14.70
2018-07-09T00:04:47.046Z,14.80
2018-07-09T00:07:15.432Z,14.70
2018-07-09T00:09:44.014Z,14.70
2018-07-09T00:12:12.338Z,14.80
2018-07-09T00:14:40.630Z,14.90
2018-07-09T00:17:08.949Z,14.90
2018-07-09T00:19:37.406Z,14.90
2018-07-09T00:22:05.784Z,14.90
2018-07-09T00:24:34.806Z,15.00
2018-07-09T00:27:03.262Z,15.00
2018-07-09T00:29:31.574Z,15.00
2018-07-09T00:31:59.922Z,15.00
2018-07-09T00:34:28.385Z,15.00
2018-07-09T00:36:56.869Z,14.90
2018-07-09T00:39:25.238Z,14.90
2018-07-09T00:41:53.800Z,14.90
2018-07-09T00:46:50.238Z,14.80
2018-07-09T00:49:18.769Z,14.80
2018-07-09T00:51:47.457Z,14.70
2018-07-09T00:54:16.057Z,14.70
2018-07-09T00:56:44.728Z,14.70
2018-07-09T00:59:13.334Z,14.60
2018-07-09T01:01:41.644Z,14.50
2018-07-09T01:04:10.072Z,14.50
2018-07-09T01:06:38.458Z,14.40
2018-07-09T01:09:06.865Z,14.30
2018-07-09T01:11:44.450Z,14.20
2018-07-09T01:14:12.768Z,14.10
2018-07-09T01:16:41.178Z,14.10
2018-07-09T01:19:09.697Z,14.00
2018-07-09T01:21:38.059Z,14.00
2018-07-09T01:26:41.159Z,13.90
2018-07-09T01:29:09.515Z,13.90
2018-07-09T01:31:38.154Z,13.90
2018-07-09T01:34:06.517Z,13.90
2018-07-09T01:36:34.988Z,13.90
2018-07-09T01:39:03.746Z,14.00
2018-07-09T01:44:00.165Z,14.00
2018-07-09T01:46:28.575Z,14.00
2018-07-09T01:48:57.015Z,14.10
2018-07-09T01:51:25.447Z,14.20
2018-07-09T01:53:53.719Z,14.10
2018-07-09T01:56:22.179Z,14.20
2018-07-09T01:58:50.690Z,14.30
2018-07-09T02:01:18.937Z,14.40
2018-07-09T02:03:47.255Z,14.40
2018-07-09T02:08:43.629Z,14.50
2018-07-09T02:11:11.939Z,14.60
2018-07-09T02:13:40.252Z,14.60
2018-07-09T02:16:08.564Z,14.60
2018-07-09T02:18:36.886Z,14.50
2018-07-09T02:21:05.245Z,14.50
2018-07-09T02:23:33.537Z,14.50
2018-07-09T02:26:01.829Z,14.50
2018-07-09T02:30:58.191Z,14.30
2018-07-09T02:33:26.528Z,14.20
2018-07-09T02:35:55.024Z,14.20
2018-07-09T02:38:23.355Z,14.20
2018-07-09T02:40:51.622Z,14.10
2018-07-09T02:43:20.015Z,14.10
2018-07-09T02:45:48.402Z,14.10
2018-07-09T02:48:16.742Z,14.10
2018-07-09T02:50:45.125Z,13.90
2018-07-09T02:53:13.692Z,13.90
2018-07-09T02:55:42.727Z,13.90
2018-07-09T02:58:11.165Z,13.90
2018-07-09T03:00:39.554Z,13.90
2018-07-09T03:03:08.056Z,13.80
2018-07-09T03:05:36.355Z,13.80
2018-07-09T03:08:04.735Z,13.80
2018-07-09T03:10:33.312Z,13.80
2018-07-09T03:13:01.799Z,13.70
2018-07-09T03:15:30.299Z,13.80
2018-07-09T03:17:58.609Z,13.80
2018-07-09T03:20:27.177Z,13.80
2018-07-09T03:22:55.642Z,14.00
2018-07-09T03:25:23.979Z,14.10
2018-07-09T03:27:52.382Z,14.30
2018-07-09T03:30:20.976Z,14.60
2018-07-09T03:32:49.392Z,14.60
2018-07-09T03:35:17.771Z,14.80
2018-07-09T03:37:46.290Z,15.00
2018-07-09T03:40:15.046Z,15.30
2018-07-09T03:42:43.632Z,15.30
2018-07-09T03:45:12.182Z,15.50
2018-07-09T03:47:40.479Z,15.70
2018-07-09T03:50:08.840Z,15.90
2018-07-09T03:52:37.139Z,16.20
2018-07-09T03:55:05.693Z,16.40
2018-07-09T03:57:34.063Z,16.60
2018-07-09T04:00:02.380Z,16.80
2018-07-09T04:02:30.701Z,16.90
2018-07-09T04:04:59.089Z,16.80
2018-07-09T04:07:28.031Z,16.80
2018-07-09T04:12:24.745Z,16.70
2018-07-09T04:14:53.322Z,16.80
2018-07-09T04:17:21.800Z,16.90
2018-07-09T04:19:50.162Z,16.80
2018-07-09T04:22:18.438Z,16.80
2018-07-09T04:24:46.733Z,16.90
2018-07-09T04:27:15.025Z,17.20
2018-07-09T04:29:43.333Z,17.40
2018-07-09T04:34:39.710Z,18.00
2018-07-09T04:37:08.013Z,18.00
2018-07-09T04:39:36.365Z,17.70
2018-07-09T04:42:04.649Z,17.50
2018-07-09T04:44:32.973Z,17.50
2018-07-09T04:47:01.264Z,17.20
2018-07-09T04:49:29.647Z,17.30
2018-07-09T04:51:57.955Z,17.40
2018-07-09T04:54:26.317Z,17.40
2018-07-09T04:59:22.695Z,17.40
2018-07-09T05:01:51.198Z,17.40
2018-07-09T05:04:19.840Z,17.30
2018-07-09T05:06:48.237Z,17.40
2018-07-09T05:09:16.814Z,17.40
2018-07-09T05:11:46.377Z,17.30
2018-07-09T05:14:14.655Z,17.10
2018-07-09T05:16:43.079Z,17.00
2018-07-09T05:19:11.580Z,17.00
2018-07-09T05:21:40.219Z,17.10
2018-07-09T05:24:08.733Z,17.00
2018-07-09T05:26:37.107Z,17.00
2018-07-09T05:29:05.462Z,17.10
2018-07-09T05:31:33.760Z,17.60
2018-07-09T05:34:02.037Z,18.00
2018-07-09T05:36:30.379Z,18.30
2018-07-09T05:38:58.845Z,18.20
2018-07-09T05:41:27.163Z,18.20
2018-07-09T05:43:55.439Z,18.00
2018-07-09T05:46:23.779Z,18.00
2018-07-09T05:48:52.078Z,18.30
2018-07-09T05:51:20.378Z,18.60
2018-07-09T05:53:48.688Z,18.90
2018-07-09T05:56:17.041Z,19.00
2018-07-09T05:58:45.348Z,19.20
2018-07-09T06:01:13.683Z,19.30
2018-07-09T06:03:41.967Z,19.50
2018-07-09T06:06:10.367Z,19.60
2018-07-09T06:08:38.735Z,19.50
2018-07-09T06:11:07.070Z,19.40
2018-07-09T06:13:35.374Z,19.60
2018-07-09T06:16:03.692Z,19.90
2018-07-09T06:18:32.060Z,20.20
2018-07-09T06:21:00.371Z,20.50
2018-07-09T06:23:29.479Z,20.50
2018-07-09T06:25:57.763Z,20.60
2018-07-09T06:28:26.172Z,21.00
2018-07-09T06:30:54.462Z,21.20
2018-07-09T06:33:22.762Z,21.40
2018-07-09T06:35:51.076Z,21.60
2018-07-09T06:40:47.419Z,21.90
2018-07-09T06:43:15.806Z,22.00
2018-07-09T06:45:44.095Z,21.80
2018-07-09T06:48:12.419Z,21.60
2018-07-09T06:50:40.693Z,21.80
2018-07-09T06:53:09.094Z,22.00
2018-07-09T06:58:05.522Z,22.20
2018-07-09T07:00:34.692Z,22.40
2018-07-09T07:03:02.998Z,22.60
2018-07-09T07:05:31.294Z,22.30
2018-07-09T07:08:00.158Z,22.40
2018-07-09T07:10:28.501Z,22.40
2018-07-09T07:12:56.812Z,22.30
2018-07-09T07:15:25.192Z,22.00
2018-07-09T07:17:53.447Z,21.60
2018-07-09T07:20:21.752Z,21.40
2018-07-09T07:22:50.016Z,21.20
2018-07-09T07:25:18.314Z,21.30
2018-07-09T07:27:46.596Z,20.90
2018-07-09T07:30:14.871Z,21.00
2018-07-09T07:35:11.234Z,20.90
2018-07-09T07:37:39.617Z,21.20
2018-07-09T07:40:07.927Z,21.50
2018-07-09T07:42:36.183Z,22.00
2018-07-09T07:45:04.639Z,22.70
2018-07-09T07:47:34.635Z,23.10
2018-07-09T07:52:34.258Z,23.10
2018-07-09T07:55:02.760Z,23.00
2018-07-09T07:57:31.052Z,23.00
2018-07-09T08:00:04.759Z,22.90
2018-07-09T08:02:33.056Z,22.50
2018-07-09T08:05:01.351Z,22.30
2018-07-09T08:09:57.666Z,22.80
2018-07-09T08:14:55.223Z,22.90
2018-07-09T08:17:23.522Z,22.80
2018-07-09T08:19:53.301Z,22.90
2018-07-09T08:22:21.591Z,23.00
2018-07-09T08:24:49.943Z,23.10
2018-07-09T08:27:18.302Z,23.40
2018-07-09T08:29:46.592Z,23.90
2018-07-09T08:32:15.055Z,24.50
2018-07-09T08:34:43.347Z,24.40
2018-07-09T08:37:11.764Z,24.60
2018-07-09T08:39:40.051Z,24.90
2018-07-09T08:44:37.481Z,25.20
2018-07-09T08:47:05.777Z,24.80
2018-07-09T08:49:34.077Z,24.80
2018-07-09T08:52:02.395Z,25.20
2018-07-09T08:54:30.690Z,25.90
2018-07-09T08:56:58.997Z,26.20
2018-07-09T08:59:27.342Z,26.50
2018-07-09T09:01:55.623Z,26.10
2018-07-09T09:04:23.910Z,26.00
2018-07-09T09:06:52.201Z,26.10
2018-07-09T09:09:20.536Z,26.40
2018-07-09T09:11:48.831Z,26.20
2018-07-09T09:14:17.794Z,26.20
2018-07-09T09:16:46.111Z,26.10
2018-07-09T09:19:14.386Z,25.70
2018-07-09T09:21:42.663Z,25.50
2018-07-09T09:24:10.954Z,25.30
